Ashkum, Illinois
Current Conditions -  °F | °C
As of 4:15 AM on Tuesday 27 Jan 2015 (Local Time) from KIKK Reporting Station
Haze Haze  
Wind Chill: 22°   Ceiling: 400
Heat Index: 28°   Visibility: 3mi
Dew Point: 26°   Wind: 5mph
Humidity: 95%   Direction: 50°NE
Pressure: 29.99"   Gusts: NA
Location:  40.88°N, 87.96°W
Report Text: KIKK 271015Z AUTO 05004KT 3SM BR OVC004 M02/M03 A2999 RMK AO2 T10251032
Loading
Personal Weather Stations






























Interactive Weather Map New forecast layout! Learn more

10-Day Weather Forecast

Advertisements
Track Severe Weather on mobile